Time;durP1;ratioP1;P1;durP2;ratioP2;P2;SDS_P1;SDS_P2;PMS_P1;PMS_P2;Temp;Humidity;BMP_temperature;BMP_pressure;BME280_temperature;BME280_humidity;BME280_pressure;Samples;Min_cycle;Max_cycle;Signal;HPM_P1;HPM_P2
2022/10/20 00:01:13;;;;;;;10.65;3.15;;;;;;;12.45;57.81;93242.91;2068136;69;20160;-74
2022/10/20 00:03:39;;;;;;;9.77;3.25;;;;;;;12.53;56.95;93248.34;2068275;69;20161;-75
2022/10/20 00:06:06;;;;;;;10.25;3.40;;;;;;;12.45;58.00;93248.56;2068361;69;20308;-75
2022/10/20 00:08:32;;;;;;;11.82;3.25;;;;;;;12.14;58.80;93243.84;2068303;69;20224;-75
2022/10/20 00:10:58;;;;;;;10.55;3.13;;;;;;;12.30;58.36;93252.59;2068331;69;20235;-75
2022/10/20 00:13:24;;;;;;;7.70;2.78;;;;;;;12.45;56.96;93249.31;2068288;69;20168;-75
2022/10/20 00:15:51;;;;;;;14.73;3.53;;;;;;;12.44;57.74;93245.00;2067955;69;20232;-76
2022/10/20 00:18:17;;;;;;;7.22;3.20;;;;;;;12.45;57.42;93246.47;2068251;69;20141;-75
2022/10/20 00:20:43;;;;;;;9.48;2.78;;;;;;;12.64;55.95;93241.97;2068711;69;20169;-75
2022/10/20 00:23:08;;;;;;;8.75;2.92;;;;;;;12.59;57.05;93237.41;2068268;69;20231;-76
2022/10/20 00:25:34;;;;;;;8.38;2.80;;;;;;;12.60;56.49;93242.47;2071474;69;20177;-75
2022/10/20 00:28:00;;;;;;;11.30;3.42;;;;;;;12.45;58.01;93245.75;2071355;69;20183;-76
2022/10/20 00:30:26;;;;;;;11.65;2.90;;;;;;;12.53;56.10;93249.09;2071337;69;20516;-75
2022/10/20 00:32:51;;;;;;;7.22;2.90;;;;;;;12.57;55.98;93240.88;2071309;69;20608;-75
2022/10/20 00:35:17;;;;;;;5.95;2.33;;;;;;;12.57;56.14;93243.69;2071420;69;20180;-75
2022/10/20 00:37:43;;;;;;;10.55;3.25;;;;;;;12.56;55.80;93242.22;2071373;69;20144;-75
2022/10/20 00:40:09;;;;;;;8.43;3.45;;;;;;;12.56;55.42;93235.84;2071565;69;20531;-75
2022/10/20 00:42:34;;;;;;;8.32;3.08;;;;;;;12.29;56.69;93237.00;2071367;69;20215;-75
2022/10/20 00:45:01;;;;;;;11.55;2.95;;;;;;;12.49;56.27;93236.81;2071607;69;20667;-76
2022/10/20 00:47:51;;;;;;;5.90;2.58;;;;;;;12.52;56.00;93236.31;2065354;69;20199;-76
2022/10/20 00:50:26;;;;;;;15.27;3.28;;;;;;;12.57;55.47;93235.22;2071415;69;20152;-75
2022/10/20 00:52:54;;;;;;;8.70;2.60;;;;;;;12.51;55.15;93231.25;2071229;69;20139;-75
2022/10/20 00:55:24;;;;;;;8.55;2.95;;;;;;;12.38;56.37;93222.06;2068215;69;20634;-76
2022/10/20 00:57:51;;;;;;;8.10;2.83;;;;;;;12.48;55.21;93221.22;2071486;69;20136;-75
2022/10/20 01:00:17;;;;;;;9.32;2.70;;;;;;;12.52;55.16;93210.16;2068119;69;20160;-75
2022/10/20 01:02:44;;;;;;;8.38;2.67;;;;;;;12.41;56.14;93220.06;2071448;69;20250;-74
2022/10/20 01:05:11;;;;;;;7.50;2.83;;;;;;;12.52;54.97;93215.81;2071342;69;20136;-74
2022/10/20 01:07:38;;;;;;;10.20;2.95;;;;;;;12.52;55.31;93215.81;2071612;69;20132;-75
2022/10/20 01:10:05;;;;;;;9.48;3.60;;;;;;;12.35;55.94;93216.88;2071541;69;20156;-74
2022/10/20 01:12:45;;;;;;;10.13;2.88;;;;;;;12.36;55.54;93219.09;2071447;69;20159;-74
2022/10/20 01:15:22;;;;;;;10.30;3.17;;;;;;;12.43;55.52;93215.31;2068227;69;20183;-75
2022/10/20 01:18:10;;;;;;;5.88;2.50;;;;;;;12.23;55.65;93214.03;2071365;69;20140;-75
2022/10/20 01:20:47;;;;;;;5.18;2.47;;;;;;;12.30;55.11;93220.81;2071385;69;20210;-74
2022/10/20 01:24:00;;;;;;;5.47;2.28;;;;;;;12.42;54.94;93219.50;2071620;69;20183;-75
2022/10/20 01:26:56;;;;;;;9.93;2.47;;;;;;;12.41;55.01;93215.16;2064065;69;20786;-75
2022/10/20 01:29:22;;;;;;;4.18;2.17;;;;;;;12.51;54.29;93212.25;2071652;69;20133;-76
2022/10/20 01:32:30;;;;;;;10.23;2.45;;;;;;;12.45;54.44;93209.03;2071166;69;20489;-75
2022/10/20 01:35:49;;;;;;;12.43;3.25;;;;;;;12.45;54.12;93209.03;2071081;69;20148;-75
2022/10/20 01:38:21;;;;;;;6.63;2.35;;;;;;;12.27;55.50;93202.25;2053762;69;20138;-75
2022/10/20 01:40:53;;;;;;;8.27;2.58;;;;;;;12.27;55.24;93182.50;2053777;69;20191;-75
2022/10/20 01:43:22;;;;;;;9.38;2.83;;;;;;;11.99;56.32;93187.84;2053520;69;20130;-74
2022/10/20 01:45:50;;;;;;;8.82;3.03;;;;;;;12.06;56.05;93178.41;2053807;70;20599;-73
2022/10/20 01:48:19;;;;;;;11.38;3.08;;;;;;;12.08;56.56;93175.72;2053843;70;20614;-74
2022/10/20 01:50:46;;;;;;;7.60;2.33;;;;;;;12.14;56.42;93183.81;2053959;70;20622;-74
2022/10/20 01:53:12;;;;;;;7.47;2.25;;;;;;;12.19;55.21;93179.94;2054073;70;20649;-74
2022/10/20 01:55:38;;;;;;;8.55;2.42;;;;;;;11.96;55.84;93177.78;2051029;70;20209;-74
2022/10/20 01:58:24;;;;;;;5.55;2.00;;;;;;;12.06;55.79;93178.41;2053738;70;20186;-74
2022/10/20 02:01:13;;;;;;;9.73;2.28;;;;;;;12.26;54.76;93172.56;2053963;70;20134;-74
2022/10/20 02:03:53;;;;;;;4.05;1.90;;;;;;;12.10;55.91;93161.75;2054000;69;20137;-73
2022/10/20 02:06:21;;;;;;;6.10;2.65;;;;;;;11.78;56.73;93166.06;2053720;70;20729;-75
2022/10/20 02:08:51;;;;;;;8.23;2.33;;;;;;;11.96;55.86;93160.88;2053608;70;20141;-75
2022/10/20 02:11:18;;;;;;;6.38;2.30;;;;;;;11.90;55.97;93157.63;2057999;69;20128;-74
2022/10/20 02:13:44;;;;;;;7.60;2.40;;;;;;;12.13;54.56;93162.59;2071147;69;20231;-74
2022/10/20 02:16:17;;;;;;;7.05;2.33;;;;;;;12.09;54.28;93154.59;2071311;69;20927;-75
2022/10/20 02:18:45;;;;;;;8.73;2.42;;;;;;;12.11;54.15;93154.00;2071295;69;20156;-75
2022/10/20 02:21:11;;;;;;;5.82;2.25;;;;;;;12.10;53.90;93152.53;2067953;69;20212;-75
2022/10/20 02:23:42;;;;;;;6.85;1.95;;;;;;;12.04;54.49;93154.97;2071197;69;20202;-74
2022/10/20 02:26:13;;;;;;;4.05;2.10;;;;;;;11.99;55.15;93159.63;2071122;69;20647;-74
2022/10/20 02:28:44;;;;;;;5.78;2.08;;;;;;;11.92;55.09;93171.88;2071350;69;20145;-73
2022/10/20 02:31:10;;;;;;;9.77;2.70;;;;;;;11.62;56.28;93173.47;2071159;69;20157;-75
2022/10/20 02:33:37;;;;;;;10.95;2.95;;;;;;;11.80;55.65;93171.81;2067599;69;20148;-74
2022/10/20 02:36:05;;;;;;;8.05;2.70;;;;;;;11.81;55.44;93166.91;2071143;69;20160;-74
2022/10/20 02:38:30;;;;;;;9.98;3.05;;;;;;;11.74;56.10;93157.34;2071051;69;20156;-73
2022/10/20 02:40:56;;;;;;;5.38;2.25;;;;;;;11.85;55.61;93164.38;2067846;69;20573;-73
2022/10/20 02:43:22;;;;;;;6.63;2.50;;;;;;;11.35;58.40;93154.09;2071084;69;20148;-73
2022/10/20 02:45:47;;;;;;;7.38;2.70;;;;;;;11.55;57.35;93160.34;2071217;69;20152;-74
2022/10/20 02:48:13;;;;;;;8.60;3.17;;;;;;;11.57;57.11;93161.19;2067894;69;20207;-74
2022/10/20 02:50:38;;;;;;;10.02;2.60;;;;;;;11.63;56.42;93158.75;2067966;69;20281;-74
2022/10/20 02:53:04;;;;;;;5.97;2.45;;;;;;;11.52;57.22;93155.91;2071215;69;20156;-74
2022/10/20 02:55:30;;;;;;;6.00;2.42;;;;;;;11.58;56.15;93161.91;2067835;69;20210;-74
2022/10/20 02:57:56;;;;;;;5.88;2.50;;;;;;;11.47;57.08;93166.19;2071105;69;20160;-74
2022/10/20 03:00:23;;;;;;;9.88;2.63;;;;;;;11.45;57.42;93175.25;2071084;69;20163;-75
2022/10/20 03:02:48;;;;;;;9.77;3.03;;;;;;;11.46;57.58;93170.34;2067766;69;20145;-75
2022/10/20 03:05:14;;;;;;;7.32;2.53;;;;;;;11.45;57.15;93171.66;2071235;69;20143;-74
2022/10/20 03:07:40;;;;;;;5.95;2.10;;;;;;;11.52;56.33;93175.63;2067971;69;20232;-76
2022/10/20 03:10:06;;;;;;;11.45;2.75;;;;;;;11.32;57.89;93170.16;2071407;69;20148;-75
2022/10/20 03:12:31;;;;;;;4.75;1.98;;;;;;;11.34;57.48;93170.28;2071503;69;20600;-75
2022/10/20 03:14:57;;;;;;;7.45;2.20;;;;;;;11.32;58.18;93172.97;2067963;69;20262;-76
2022/10/20 03:17:23;;;;;;;7.97;2.55;;;;;;;11.29;57.87;93170.63;2071142;69;20141;-76
2022/10/20 03:19:48;;;;;;;9.88;2.88;;;;;;;11.07;58.47;93175.53;2071360;69;20633;-76
2022/10/20 03:22:14;;;;;;;5.68;1.83;;;;;;;11.24;57.70;93168.88;2071873;69;20155;-75
2022/10/20 03:24:40;;;;;;;5.70;2.10;;;;;;;11.26;57.67;93177.47;2068709;69;20216;-75
2022/10/20 03:27:06;;;;;;;4.97;2.15;;;;;;;11.21;57.07;93182.09;2071972;69;20586;-74
2022/10/20 03:29:32;;;;;;;6.35;2.30;;;;;;;11.32;56.04;93184.25;2068550;69;20202;-74
2022/10/20 03:31:57;;;;;;;5.40;2.42;;;;;;;11.44;54.98;93168.13;2071814;69;20144;-74
2022/10/20 03:34:23;;;;;;;6.13;2.03;;;;;;;11.30;56.00;93181.28;2068631;69;20160;-75
2022/10/20 03:36:49;;;;;;;5.75;2.35;;;;;;;11.34;55.91;93175.91;2071911;69;20232;-76
2022/10/20 03:39:14;;;;;;;5.50;1.95;;;;;;;11.36;55.53;93180.94;2068609;69;20129;-74
2022/10/20 03:41:40;;;;;;;8.70;2.00;;;;;;;11.17;56.31;93179.75;2068602;69;20671;-75
2022/10/20 03:44:06;;;;;;;10.02;2.50;;;;;;;11.31;55.33;93165.84;2072021;69;20213;-76
2022/10/20 03:46:32;;;;;;;6.80;2.28;;;;;;;11.38;55.33;93169.81;2071818;69;20189;-76
2022/10/20 03:48:58;;;;;;;8.85;2.08;;;;;;;11.38;55.56;93175.44;2071900;69;20133;-76
2022/10/20 03:51:23;;;;;;;5.60;1.70;;;;;;;11.43;55.40;93172.28;2071845;69;20660;-75
2022/10/20 03:53:49;;;;;;;4.05;1.77;;;;;;;11.30;55.80;93172.09;2071868;69;20148;-75
2022/10/20 03:56:17;;;;;;;4.18;1.60;;;;;;;11.19;56.36;93190.44;2071998;69;20338;-75
2022/10/20 03:58:43;;;;;;;6.45;2.00;;;;;;;11.18;56.77;93186.13;2068566;69;20150;-75
2022/10/20 04:01:17;;;;;;;4.15;1.40;;;;;;;11.09;57.48;93182.03;2071865;69;20539;-77
2022/10/20 04:03:46;;;;;;;5.88;1.90;;;;;;;11.33;56.13;93176.53;2071974;69;20531;-74
2022/10/20 04:06:14;;;;;;;5.10;2.08;;;;;;;11.19;56.52;93179.16;2071816;69;20180;-74
2022/10/20 04:08:40;;;;;;;8.43;1.95;;;;;;;11.11;57.48;93176.53;2068544;69;20136;-73
2022/10/20 04:11:06;;;;;;;8.60;3.75;;;;;;;11.24;55.89;93172.44;2071847;69;20199;-73
2022/10/20 04:13:31;;;;;;;8.63;2.90;;;;;;;11.25;55.84;93176.72;2071856;69;20172;-76
2022/10/20 04:15:57;;;;;;;7.55;2.42;;;;;;;11.26;56.40;93181.00;2071780;69;20524;-76
2022/10/20 04:18:23;;;;;;;8.65;2.03;;;;;;;11.31;56.10;93171.47;2068565;69;20508;-75
2022/10/20 04:20:48;;;;;;;5.65;1.63;;;;;;;11.36;56.03;93178.13;2068285;69;20156;-75
2022/10/20 04:23:14;;;;;;;7.70;2.53;;;;;;;11.11;56.49;93170.16;2068526;69;20496;-76
2022/10/20 04:25:44;;;;;;;9.13;2.33;;;;;;;11.22;55.73;93175.09;2071843;69;20144;-76
2022/10/20 04:28:16;;;;;;;7.00;2.30;;;;;;;11.31;55.35;93170.75;2072032;69;20500;-76
2022/10/20 04:30:43;;;;;;;4.40;2.17;;;;;;;11.22;55.90;93168.75;2071809;69;20160;-76
2022/10/20 04:33:09;;;;;;;7.95;2.20;;;;;;;11.22;56.05;93171.56;2071683;69;20528;-75
2022/10/20 04:35:34;;;;;;;6.07;1.60;;;;;;;11.07;57.64;93165.00;2071858;69;20143;-75
2022/10/20 04:38:00;;;;;;;7.30;2.17;;;;;;;11.22;56.10;93158.19;2071839;69;20247;-75
2022/10/20 04:40:25;;;;;;;8.63;1.92;;;;;;;11.33;55.32;93166.00;2071820;69;20627;-75
2022/10/20 04:42:51;;;;;;;7.82;2.00;;;;;;;11.28;55.38;93166.34;2068545;69;20186;-76
2022/10/20 04:45:17;;;;;;;5.65;1.70;;;;;;;11.31;55.31;93165.09;2071831;69;20219;-76
2022/10/20 04:47:42;;;;;;;5.25;1.90;;;;;;;11.25;55.46;93161.91;2071754;69;20180;-75
2022/10/20 04:50:08;;;;;;;8.95;2.75;;;;;;;11.18;55.37;93153.06;2071870;69;20294;-75
2022/10/20 04:52:34;;;;;;;4.88;2.22;;;;;;;11.08;55.52;93152.38;2071923;69;20147;-74
2022/10/20 04:54:59;;;;;;;8.55;2.35;;;;;;;11.22;55.27;93157.47;2071929;69;20144;-76
2022/10/20 04:57:25;;;;;;;3.90;1.75;;;;;;;11.33;54.56;93154.72;2071879;69;20171;-75
2022/10/20 04:59:51;;;;;;;7.15;1.92;;;;;;;11.29;55.82;93153.72;2071735;69;20172;-75
2022/10/20 05:02:17;;;;;;;4.38;1.88;;;;;;;11.29;55.62;93156.53;2071584;69;20694;-76
2022/10/20 05:04:43;;;;;;;6.82;1.98;;;;;;;11.34;54.89;93150.56;2071806;69;20586;-75
2022/10/20 05:07:08;;;;;;;11.27;4.47;;;;;;;11.26;55.41;93152.84;2071716;69;20156;-76
2022/10/20 05:09:34;;;;;;;6.50;2.83;;;;;;;11.36;55.32;93158.38;2071658;69;20147;-76
2022/10/20 05:12:01;;;;;;;6.93;2.50;;;;;;;11.38;54.30;93141.63;2071567;69;20200;-75
2022/10/20 05:14:26;;;;;;;5.00;1.83;;;;;;;11.45;54.17;93141.41;2071780;69;20176;-74
2022/10/20 05:16:52;;;;;;;5.80;1.90;;;;;;;11.19;55.09;93142.53;2071558;69;20147;-75
2022/10/20 05:19:18;;;;;;;6.53;2.58;;;;;;;11.23;54.74;93147.69;2071532;69;20152;-76
2022/10/20 05:21:44;;;;;;;6.65;2.30;;;;;;;11.35;54.47;93145.66;2071608;69;20168;-76
2022/10/20 05:24:12;;;;;;;5.72;1.75;;;;;;;11.39;54.77;93141.00;2068406;69;20501;-76
2022/10/20 05:26:38;;;;;;;6.15;2.25;;;;;;;11.38;54.63;93133.91;2071807;69;20156;-75
2022/10/20 05:29:06;;;;;;;7.03;2.15;;;;;;;11.23;55.91;93127.97;2071659;69;20140;-74
2022/10/20 05:31:39;;;;;;;6.93;2.20;;;;;;;11.29;55.75;93129.09;2071567;69;20272;-76
2022/10/20 05:34:05;;;;;;;9.68;1.92;;;;;;;11.33;54.95;93129.34;2071670;69;20160;-76
2022/10/20 05:36:31;;;;;;;4.53;1.70;;;;;;;11.18;56.48;93138.97;2068218;69;20163;-74
2022/10/20 05:38:56;;;;;;;5.70;2.03;;;;;;;11.19;55.38;93134.06;2071665;69;20153;-76
2022/10/20 05:41:28;;;;;;;7.10;2.60;;;;;;;11.23;55.29;93123.06;2071663;69;20158;-76
2022/10/20 05:43:57;;;;;;;7.45;2.00;;;;;;;11.27;55.33;93139.47;2071572;69;20144;-76
2022/10/20 05:46:24;;;;;;;7.28;3.42;;;;;;;11.19;55.65;93140.44;2071499;69;20477;-76
2022/10/20 05:48:56;;;;;;;9.75;3.25;;;;;;;11.26;54.48;93143.66;2068211;69;20245;-75
2022/10/20 05:51:24;;;;;;;8.03;3.37;;;;;;;10.95;57.59;93136.03;2071586;69;20171;-75
2022/10/20 05:53:51;;;;;;;7.18;3.30;;;;;;;11.01;56.40;93141.31;2071681;69;20265;-76
2022/10/20 05:56:18;;;;;;;9.75;3.47;;;;;;;11.10;55.60;93146.16;2071620;69;20235;-75
2022/10/20 05:58:46;;;;;;;11.45;3.67;;;;;;;11.10;55.97;93148.97;2071612;69;20156;-75
2022/10/20 06:01:25;;;;;;;10.85;3.17;;;;;;;11.03;56.01;93156.25;2071379;69;20179;-75
2022/10/20 06:03:53;;;;;;;12.18;4.00;;;;;;;11.01;56.25;93158.22;2071437;69;20155;-76
2022/10/20 06:06:21;;;;;;;6.93;2.97;;;;;;;10.99;57.09;93160.88;2071492;69;20148;-75
2022/10/20 06:08:47;;;;;;;6.68;2.55;;;;;;;10.93;56.81;93164.03;2068317;69;20156;-75
2022/10/20 06:11:14;;;;;;;7.95;3.20;;;;;;;10.89;56.89;93166.59;2068387;69;20163;-77
2022/10/20 06:13:41;;;;;;;10.25;4.57;;;;;;;11.00;56.92;93168.03;2071516;69;20151;-76
2022/10/20 06:16:12;;;;;;;16.27;4.35;;;;;;;11.03;55.99;93169.63;2071333;69;20681;-76
2022/10/20 06:18:38;;;;;;;11.80;3.80;;;;;;;10.94;56.73;93157.81;2071485;69;20160;-77
2022/10/20 06:21:09;;;;;;;9.98;3.08;;;;;;;10.93;56.43;93161.22;2071520;69;20132;-77
2022/10/20 06:23:36;;;;;;;7.13;2.88;;;;;;;10.99;55.73;93155.25;2071638;69;20155;-78
2022/10/20 06:26:07;;;;;;;8.40;3.08;;;;;;;11.10;55.46;93158.16;2071504;69;20162;-78
2022/10/20 06:28:35;;;;;;;5.90;2.30;;;;;;;11.10;56.49;93163.06;2071534;69;20620;-78
2022/10/20 06:31:18;;;;;;;10.25;2.78;;;;;;;10.76;57.71;93150.22;2071446;69;20136;-77
2022/10/20 06:33:45;;;;;;;11.52;2.88;;;;;;;10.94;56.02;93157.81;2071517;69;20162;-76
2022/10/20 06:36:11;;;;;;;9.75;3.55;;;;;;;11.02;55.71;93162.50;2071537;69;20148;-76
2022/10/20 06:38:37;;;;;;;9.55;4.40;;;;;;;11.07;55.94;93165.00;2068243;69;20572;-76
2022/10/20 06:41:05;;;;;;;7.32;2.88;;;;;;;11.09;55.94;93167.22;2071545;69;20152;-75
2022/10/20 06:43:31;;;;;;;9.20;3.17;;;;;;;11.15;56.22;93176.06;2068123;69;20722;-77
2022/10/20 06:46:00;;;;;;;21.70;11.27;;;;;;;10.73;57.87;93188.78;2071282;69;20205;-75
2022/10/20 06:48:26;;;;;;;22.80;12.85;;;;;;;11.03;56.58;93186.53;2071432;69;20144;-77
2022/10/20 06:50:59;;;;;;;21.48;10.93;;;;;;;11.13;56.61;93192.81;2071411;69;20163;-75
2022/10/20 06:53:27;;;;;;;18.85;10.48;;;;;;;11.12;56.98;93180.81;2068104;69;20186;-75
2022/10/20 06:56:07;;;;;;;16.77;8.82;;;;;;;10.77;58.47;93189.06;2071928;69;20584;-75
2022/10/20 06:58:34;;;;;;;18.85;6.57;;;;;;;11.15;56.24;93181.69;2068661;69;20607;-76
2022/10/20 07:01:26;;;;;;;16.38;8.05;;;;;;;10.97;58.63;93169.22;2068580;69;20599;-76
2022/10/20 07:03:55;;;;;;;17.02;7.68;;;;;;;11.25;56.20;93168.28;2071945;69;20175;-75
2022/10/20 07:06:27;;;;;;;15.35;6.68;;;;;;;11.26;56.24;93169.00;2065887;69;20160;-76
2022/10/20 07:08:55;;;;;;;9.73;3.50;;;;;;;11.09;56.34;93170.78;2072050;69;20148;-75
2022/10/20 07:11:25;;;;;;;9.55;3.35;;;;;;;11.35;55.38;93165.38;2072021;69;20148;-75
2022/10/20 07:13:51;;;;;;;10.57;3.40;;;;;;;11.36;55.56;93164.03;2072098;69;20151;-74
2022/10/20 07:16:21;;;;;;;10.23;3.28;;;;;;;11.22;55.10;93158.19;2071904;69;20145;-74
2022/10/20 07:18:47;;;;;;;4.15;2.20;;;;;;;11.48;54.14;93161.28;2071990;69;20251;-75
2022/10/20 07:21:21;;;;;;;9.85;2.70;;;;;;;11.57;55.37;93160.44;2071879;69;20152;-73
2022/10/20 07:23:49;;;;;;;3.58;1.80;;;;;;;11.46;57.37;93161.88;2071990;69;20136;-75
2022/10/20 07:26:20;;;;;;;6.65;2.78;;;;;;;11.45;56.01;93149.13;2068558;69;20140;-73
2022/10/20 07:28:55;;;;;;;13.38;2.60;;;;;;;11.37;56.10;93154.25;2065772;69;20145;-74
2022/10/20 07:31:22;;;;;;;7.85;3.58;;;;;;;11.57;55.35;93155.53;2071864;69;20149;-75
2022/10/20 07:33:48;;;;;;;10.45;4.18;;;;;;;11.67;54.93;93153.38;2071826;69;20177;-74
2022/10/20 07:36:16;;;;;;;16.23;4.53;;;;;;;11.79;54.93;93144.97;2071921;69;20627;-75
2022/10/20 07:38:42;;;;;;;9.48;3.85;;;;;;;11.88;54.67;93132.88;2071790;69;20164;-76
2022/10/20 07:41:09;;;;;;;12.50;4.22;;;;;;;12.03;54.47;93142.22;2072029;69;20159;-76
2022/10/20 07:43:36;;;;;;;9.88;3.80;;;;;;;11.82;55.28;93140.16;2068402;69;20136;-76
2022/10/20 07:46:03;;;;;;;14.02;4.85;;;;;;;12.19;54.05;93140.41;2071719;69;20183;-76
2022/10/20 07:48:29;;;;;;;17.33;5.95;;;;;;;12.15;55.27;93145.81;2071809;69;20137;-76
2022/10/20 07:51:33;;;;;;;12.95;5.75;;;;;;;12.01;55.64;93147.75;2071827;69;20218;-75
2022/10/20 07:54:07;;;;;;;14.45;5.80;;;;;;;12.47;54.39;93141.41;2068522;69;20148;-76
2022/10/20 07:56:38;;;;;;;11.48;6.68;;;;;;;12.66;53.54;93138.31;2071833;69;20163;-75
2022/10/20 07:59:05;;;;;;;11.25;5.00;;;;;;;12.81;53.69;93142.00;2071823;69;20129;-75
2022/10/20 08:01:31;;;;;;;16.55;6.20;;;;;;;12.87;52.82;93134.59;2071611;69;20144;-73
2022/10/20 08:03:57;;;;;;;15.05;6.07;;;;;;;12.93;53.46;93132.16;2071730;69;20163;-74
2022/10/20 08:06:23;;;;;;;15.65;5.90;;;;;;;13.25;52.47;93140.34;2068333;69;20277;-74
2022/10/20 08:08:49;;;;;;;28.30;8.18;;;;;;;13.46;54.03;93131.66;2071789;69;20145;-76
2022/10/20 08:11:14;;;;;;;17.70;6.40;;;;;;;13.85;54.17;93128.19;2071909;69;20180;-76
2022/10/20 08:13:41;;;;;;;28.42;9.40;;;;;;;13.78;52.52;93124.28;2071786;69;20140;-75
2022/10/20 08:16:09;;;;;;;26.60;7.88;;;;;;;14.10;52.39;93116.81;2071671;69;20209;-76
2022/10/20 08:18:35;;;;;;;31.75;9.05;;;;;;;14.49;52.20;93122.50;2071908;69;20227;-76
2022/10/20 08:21:11;;;;;;;21.35;6.55;;;;;;;14.81;51.80;93105.00;2071813;69;20496;-75
2022/10/20 08:23:38;;;;;;;14.15;5.07;;;;;;;14.96;51.84;93110.03;2071803;69;20140;-76
2022/10/20 08:26:04;;;;;;;14.27;4.50;;;;;;;15.02;50.15;93107.50;2071767;69;20336;-76
2022/10/20 08:28:30;;;;;;;17.88;5.05;;;;;;;15.02;49.84;93106.75;2068401;69;20293;-76
2022/10/20 08:30:55;;;;;;;11.90;4.50;;;;;;;15.08;48.85;93113.47;2071639;69;20156;-76
2022/10/20 08:33:21;;;;;;;11.35;3.90;;;;;;;15.31;49.14;93104.00;2071904;69;20148;-75
2022/10/20 08:35:46;;;;;;;15.18;4.35;;;;;;;15.38;48.79;93097.25;2071767;69;20129;-75
2022/10/20 08:38:12;;;;;;;14.82;4.95;;;;;;;15.51;48.63;93098.56;2071753;69;20255;-74
2022/10/20 08:40:41;;;;;;;9.43;4.20;;;;;;;15.45;48.21;93093.34;2071669;69;20213;-75
2022/10/20 08:43:17;;;;;;;15.82;4.65;;;;;;;15.84;49.51;93094.50;2068314;69;20247;-74
2022/10/20 08:45:43;;;;;;;12.68;4.40;;;;;;;16.09;50.05;93102.78;2071731;69;20160;-74
2022/10/20 08:48:17;;;;;;;13.45;5.00;;;;;;;16.38;47.89;93098.41;2071589;69;20469;-74
2022/10/20 08:50:46;;;;;;;16.52;5.05;;;;;;;16.43;46.67;93105.75;2071812;69;20167;-74
2022/10/20 08:53:12;;;;;;;12.57;4.80;;;;;;;16.69;47.98;93094.84;2071754;69;20167;-74
2022/10/20 08:55:37;;;;;;;17.38;6.03;;;;;;;16.83;47.90;93101.19;2071634;69;20144;-74
2022/10/20 08:58:06;;;;;;;21.98;8.48;;;;;;;17.00;46.87;93094.09;2068357;69;20160;-75
2022/10/20 09:00:35;;;;;;;12.60;5.72;;;;;;;17.06;47.01;93096.47;2071640;69;20175;-74
2022/10/20 09:03:12;;;;;;;17.35;5.90;;;;;;;17.51;46.22;93094.13;2071453;69;20145;-75
2022/10/20 09:05:41;;;;;;;16.60;5.47;;;;;;;18.01;45.96;93085.47;2071585;69;20148;-74
2022/10/20 09:08:07;;;;;;;20.10;5.28;;;;;;;18.35;44.66;93091.75;2071665;69;20169;-75
2022/10/20 09:10:41;;;;;;;10.02;4.28;;;;;;;18.44;44.89;93084.97;2068503;69;20256;-75
2022/10/20 09:13:26;;;;;;;13.00;4.18;;;;;;;18.54;44.27;93076.81;2071706;69;20152;-75
2022/10/20 09:15:59;;;;;;;12.32;4.10;;;;;;;18.92;44.44;93076.78;2071604;69;20188;-75
2022/10/20 09:18:25;;;;;;;7.32;3.17;;;;;;;18.63;43.74;93083.53;2071665;69;20152;-75
2022/10/20 09:20:57;;;;;;;10.80;2.90;;;;;;;19.29;43.06;93069.50;2071656;69;20144;-75
2022/10/20 09:23:29;;;;;;;11.20;3.55;;;;;;;19.54;41.35;93063.22;2071817;69;20176;-75
2022/10/20 09:25:54;;;;;;;10.10;3.30;;;;;;;19.77;42.97;93069.69;2071591;69;20149;-75
2022/10/20 09:28:24;;;;;;;11.73;3.20;;;;;;;20.10;41.47;93065.00;2071690;69;20233;-75
2022/10/20 09:30:51;;;;;;;9.65;2.88;;;;;;;20.29;39.42;93062.03;2065501;69;20565;-75
2022/10/20 09:33:22;;;;;;;7.95;2.50;;;;;;;20.27;40.27;93062.00;2071614;69;20170;-75
2022/10/20 09:35:49;;;;;;;8.75;2.75;;;;;;;20.79;36.74;93056.38;2071857;69;20144;-76
2022/10/20 09:38:21;;;;;;;10.43;2.35;;;;;;;21.09;37.10;93055.78;2071622;69;20144;-76
2022/10/20 09:41:01;;;;;;;11.50;2.97;;;;;;;21.46;36.79;93068.25;2068272;69;20151;-75
2022/10/20 09:43:27;;;;;;;13.30;2.60;;;;;;;21.13;37.48;93055.19;2071597;69;20269;-74
2022/10/20 09:45:57;;;;;;;9.48;2.08;;;;;;;21.45;36.74;93061.78;2071431;69;20587;-76
2022/10/20 09:48:24;;;;;;;12.73;3.08;;;;;;;21.93;36.79;93055.81;2065289;69;20225;-76
2022/10/20 09:50:56;;;;;;;10.70;2.40;;;;;;;22.22;36.28;93057.25;2071491;69;20132;-76
2022/10/20 09:53:49;;;;;;;7.60;1.80;;;;;;;22.20;36.35;93051.47;2071527;69;20143;-76
2022/10/20 09:56:30;;;;;;;13.90;2.50;;;;;;;22.35;35.25;93058.25;2071518;69;20141;-76
2022/10/20 09:58:58;;;;;;;7.13;1.92;;;;;;;21.97;34.31;93050.19;2071496;69;20135;-74
2022/10/20 10:01:24;;;;;;;10.00;1.95;;;;;;;22.71;35.84;93058.31;2071479;69;20140;-75
2022/10/20 10:03:52;;;;;;;8.05;2.08;;;;;;;22.74;35.03;93045.47;2071515;69;20453;-75
2022/10/20 10:06:43;;;;;;;11.10;2.30;;;;;;;22.27;34.22;93043.75;2068240;69;20164;-75
2022/10/20 10:09:26;;;;;;;8.60;1.83;;;;;;;22.14;34.06;93039.84;2071612;69;20132;-75
2022/10/20 10:12:01;;;;;;;8.65;2.22;;;;;;;22.77;33.69;93031.88;2071479;69;20587;-75
2022/10/20 10:14:28;;;;;;;8.02;2.13;;;;;;;22.60;32.75;93030.84;2071432;69;20602;-75
2022/10/20 10:16:54;;;;;;;9.30;2.13;;;;;;;23.06;33.47;93030.34;2065240;69;20610;-75
2022/10/20 10:19:26;;;;;;;9.68;2.03;;;;;;;23.47;32.80;93020.34;2071578;69;20152;-75
2022/10/20 10:21:57;;;;;;;5.50;1.83;;;;;;;24.06;32.57;93020.63;2071560;69;20666;-75
2022/10/20 10:24:54;;;;;;;12.00;2.40;;;;;;;24.00;30.15;93024.13;2071634;69;20578;-75
2022/10/20 10:27:31;;;;;;;9.68;2.10;;;;;;;24.38;31.08;93020.44;2067940;69;20132;-75
2022/10/20 10:30:14;;;;;;;8.65;2.10;;;;;;;24.93;30.83;93012.50;2071451;69;20128;-75
2022/10/20 10:32:44;;;;;;;11.70;2.20;;;;;;;25.19;30.77;93020.75;2071284;69;20204;-75
2022/10/20 10:35:31;;;;;;;9.13;2.65;;;;;;;25.88;28.73;93012.09;2071465;69;20152;-75
2022/10/20 10:37:58;;;;;;;13.68;2.50;;;;;;;26.73;28.94;93014.16;2071463;69;20243;-75
2022/10/20 10:40:44;;;;;;;7.97;2.03;;;;;;;27.09;28.57;93007.84;2068221;69;20152;-75
2022/10/20 10:43:32;;;;;;;7.75;2.15;;;;;;;28.23;27.79;93004.44;2071532;69;20159;-75
2022/10/20 10:46:18;;;;;;;13.18;2.72;;;;;;;26.98;26.70;92998.38;2063211;69;20144;-75
2022/10/20 10:49:09;;;;;;;13.38;2.63;;;;;;;27.25;28.17;92998.50;2068056;69;20146;-76
2022/10/20 10:51:50;;;;;;;11.13;2.65;;;;;;;26.28;28.37;92988.59;2071410;69;20583;-75
2022/10/20 10:54:34;;;;;;;13.60;2.83;;;;;;;26.33;28.10;92984.28;2065145;69;20207;-76
2022/10/20 10:57:37;;;;;;;9.25;2.05;;;;;;;25.51;27.51;92979.28;2071310;69;20155;-76
2022/10/20 11:00:16;;;;;;;6.30;2.00;;;;;;;26.17;28.33;92983.47;2071622;69;20160;-75
2022/10/20 11:02:58;;;;;;;7.07;2.10;;;;;;;26.37;28.95;92980.72;2071291;69;20232;-76
2022/10/20 11:05:30;;;;;;;12.02;2.72;;;;;;;26.45;29.52;92971.41;2071329;69;20152;-76
2022/10/20 11:08:25;;;;;;;8.63;2.33;;;;;;;26.78;29.13;92973.00;2071423;69;20184;-76
2022/10/20 11:11:05;;;;;;;14.35;2.72;;;;;;;26.25;29.91;92966.94;2071300;69;20136;-76
2022/10/20 11:13:39;;;;;;;9.32;2.65;;;;;;;25.80;31.21;92966.63;2071305;69;20152;-76
2022/10/20 11:16:14;;;;;;;15.50;3.35;;;;;;;25.52;31.49;92969.22;2071401;69;20152;-75
2022/10/20 11:18:58;;;;;;;8.95;2.60;;;;;;;25.32;31.14;92961.09;2071338;69;20163;-76
2022/10/20 11:21:29;;;;;;;13.10;2.83;;;;;;;25.50;31.73;92960.56;2071253;69;20148;-76
2022/10/20 11:24:10;;;;;;;12.20;3.03;;;;;;;25.45;32.04;92953.31;2071420;69;20156;-75
2022/10/20 11:26:39;;;;;;;12.15;2.70;;;;;;;24.76;33.38;92950.41;2071328;69;20136;-76
2022/10/20 11:29:13;;;;;;;9.20;2.72;;;;;;;24.53;32.37;92955.16;2070687;69;20162;-75
2022/10/20 11:31:51;;;;;;;11.50;2.70;;;;;;;24.25;31.64;92944.69;2070417;69;20160;-75
2022/10/20 11:34:37;;;;;;;15.10;3.00;;;;;;;24.29;32.87;92936.13;2071074;69;20187;-76
2022/10/20 11:37:14;;;;;;;15.80;2.78;;;;;;;24.44;32.38;92937.06;2067559;69;20164;-75
2022/10/20 11:40:04;;;;;;;13.88;2.38;;;;;;;24.64;33.08;92930.09;2070942;69;20151;-75
2022/10/20 11:43:05;;;;;;;15.25;2.58;;;;;;;24.63;32.82;92928.66;2063174;69;20599;-75
2022/10/20 11:45:41;;;;;;;10.10;2.55;;;;;;;24.68;32.04;92918.63;2070407;69;20623;-74